createdAt,value
2019-05-11T00:00:02.510Z,63.05
2019-05-11T00:05:02.736Z,63.07
2019-05-11T00:10:03.324Z,63.05
2019-05-11T00:15:02.799Z,63.08
2019-05-11T00:20:03.427Z,63.08
2019-05-11T00:25:02.975Z,63.06
2019-05-11T00:30:02.423Z,63.09
2019-05-11T00:35:02.961Z,63.14
2019-05-11T00:40:14.028Z,63.19
2019-05-11T00:45:03.109Z,63.22
2019-05-11T00:50:02.535Z,63.23
2019-05-11T00:55:03.066Z,63.36
2019-05-11T01:00:02.519Z,63.38
2019-05-11T01:05:03.077Z,63.45
2019-05-11T01:10:02.522Z,63.56
2019-05-11T01:15:03.002Z,63.61
2019-05-11T01:20:02.448Z,63.66
2019-05-11T01:25:02.986Z,63.86
2019-05-11T01:30:02.458Z,64.0
2019-05-11T01:35:02.918Z,64.03
2019-05-11T01:40:03.477Z,64.05
2019-05-11T01:45:02.922Z,64.06
2019-05-11T01:50:03.439Z,64.0
2019-05-11T01:55:02.981Z,63.95
2019-05-11T02:00:02.494Z,63.98
2019-05-11T02:05:03.025Z,63.93
2019-05-11T02:10:02.510Z,63.95
2019-05-11T02:15:03.005Z,64.02
2019-05-11T02:20:02.519Z,64.06
2019-05-11T02:25:03.059Z,64.02
2019-05-11T02:30:02.603Z,64.03
2019-05-11T02:35:03.142Z,64.15
2019-05-11T02:40:02.621Z,64.16
2019-05-11T02:45:03.095Z,64.19
2019-05-11T02:50:02.547Z,64.21
2019-05-11T02:55:03.062Z,64.26
2019-05-11T03:00:02.603Z,64.38
2019-05-11T03:05:03.129Z,64.46
2019-05-11T03:10:02.645Z,64.5
2019-05-11T03:15:03.094Z,64.56
2019-05-11T03:20:02.629Z,64.56
2019-05-11T03:25:03.170Z,64.65
2019-05-11T03:30:02.686Z,64.66
2019-05-11T03:35:03.295Z,64.73
2019-05-11T03:40:02.848Z,64.78
2019-05-11T03:45:03.290Z,64.83
2019-05-11T03:50:02.814Z,64.9
2019-05-11T03:55:03.291Z,64.98
2019-05-11T04:00:02.800Z,64.98
2019-05-11T04:05:03.225Z,65.16
2019-05-11T04:10:02.748Z,65.17
2019-05-11T04:15:03.296Z,65.13
2019-05-11T04:20:02.811Z,65.15
2019-05-11T04:25:03.362Z,65.07
2019-05-11T04:30:02.889Z,65.09
2019-05-11T04:35:03.433Z,65.03
2019-05-11T04:40:02.965Z,65.05
2019-05-11T04:45:02.500Z,64.98
2019-05-11T04:50:03.010Z,65.08
2019-05-11T04:55:02.570Z,65.18
2019-05-11T05:00:03.146Z,65.27
2019-05-11T05:05:02.653Z,65.18
2019-05-11T05:10:03.146Z,65.27
2019-05-11T05:15:02.660Z,65.2
2019-05-11T05:20:03.133Z,65.28
2019-05-11T05:25:02.634Z,65.4
2019-05-11T05:30:03.363Z,65.45
2019-05-11T05:35:02.911Z,65.46
2019-05-11T05:40:03.450Z,65.74
2019-05-11T05:45:02.968Z,65.75
2019-05-11T05:50:02.531Z,65.99
2019-05-11T05:55:03.046Z,66.04
2019-05-11T06:00:02.513Z,65.97
2019-05-11T06:05:03.005Z,65.97
2019-05-11T06:10:02.527Z,65.96
2019-05-11T06:15:03.069Z,65.89
2019-05-11T06:20:03.656Z,65.83
2019-05-11T06:25:02.584Z,65.79
2019-05-11T06:30:03.073Z,65.84
2019-05-11T06:35:02.857Z,65.95
2019-05-11T06:40:03.464Z,66.01
2019-05-11T06:45:02.966Z,66.03
2019-05-11T06:50:02.497Z,66.07
2019-05-11T06:55:03.050Z,65.99
2019-05-11T07:00:02.564Z,65.93
2019-05-11T07:05:03.097Z,66.03
2019-05-11T07:10:02.625Z,66.0
2019-05-11T07:15:03.184Z,66.07
2019-05-11T07:20:02.634Z,66.39
2019-05-11T07:25:03.139Z,66.21
2019-05-11T07:30:02.662Z,66.2
2019-05-11T07:35:03.202Z,65.84
2019-05-11T07:40:02.714Z,65.59
2019-05-11T07:45:03.164Z,65.22
2019-05-11T07:50:02.680Z,65.09
2019-05-11T07:55:03.129Z,64.69
2019-05-11T08:00:02.649Z,64.37
2019-05-11T08:05:03.194Z,64.02
2019-05-11T08:10:02.709Z,63.71
2019-05-11T08:15:11.636Z,63.31
2019-05-11T08:20:02.686Z,63.37
2019-05-11T08:25:03.227Z,62.93
2019-05-11T08:30:02.756Z,62.55
2019-05-11T08:35:03.289Z,62.4
2019-05-11T08:40:02.816Z,62.13
2019-05-11T08:45:15.965Z,61.82
2019-05-11T08:50:03.199Z,62.21
2019-05-11T08:55:02.714Z,62.58
2019-05-11T09:00:03.149Z,62.55
2019-05-11T09:05:02.679Z,62.76
2019-05-11T09:10:03.226Z,61.96
2019-05-11T09:15:05.936Z,61.43
2019-05-11T09:20:03.393Z,60.38
2019-05-11T09:25:02.917Z,60.06
2019-05-11T09:30:03.465Z,60.12
2019-05-11T09:35:02.990Z,59.72
2019-05-11T09:40:02.509Z,59.3
2019-05-11T09:45:03.055Z,58.72
2019-05-11T09:50:02.588Z,57.89
2019-05-11T09:55:03.129Z,57.71
2019-05-11T10:00:02.572Z,58.35
2019-05-11T10:05:03.095Z,57.35
2019-05-11T10:10:02.621Z,55.91
2019-05-11T10:15:03.142Z,56.29
2019-05-11T10:20:02.667Z,55.81
2019-05-11T10:25:03.211Z,55.33
2019-05-11T10:30:02.729Z,54.85
2019-05-11T10:35:03.179Z,55.28
2019-05-11T10:40:02.628Z,54.25
2019-05-11T10:45:03.220Z,53.25
2019-05-11T10:50:02.659Z,54.24
2019-05-11T10:55:03.178Z,54.49
2019-05-11T11:00:02.738Z,53.89
2019-05-11T11:05:03.195Z,53.89
2019-05-11T11:10:02.674Z,53.51
2019-05-11T11:15:03.132Z,52.66
2019-05-11T11:20:02.660Z,52.49
2019-05-11T11:25:03.107Z,51.21
2019-05-11T11:30:02.619Z,48.54
2019-05-11T11:35:03.063Z,48.68
2019-05-11T11:40:02.625Z,49.75
2019-05-11T11:45:02.271Z,49.35
2019-05-11T11:50:01.964Z,49.5
2019-05-11T11:55:02.562Z,50.01
2019-05-11T12:00:03.029Z,48.82
2019-05-11T12:05:02.548Z,49.05
2019-05-11T12:10:03.091Z,49.54
2019-05-11T12:15:02.540Z,46.45
2019-05-11T12:20:03.055Z,48.31
2019-05-11T12:25:02.491Z,48.44
2019-05-11T12:30:03.018Z,49.05
2019-05-11T12:35:02.445Z,46.44
2019-05-11T12:40:02.890Z,45.87
2019-05-11T12:45:03.425Z,45.2
2019-05-11T12:50:02.948Z,46.58
2019-05-11T12:55:03.395Z,44.01
2019-05-11T13:00:03.119Z,44.54
2019-05-11T13:05:02.566Z,45.23
2019-05-11T13:10:03.093Z,45.93
2019-05-11T13:15:02.519Z,44.38
2019-05-11T13:20:02.963Z,46.43
2019-05-11T13:25:02.473Z,42.47
2019-05-11T13:30:03.010Z,41.34
2019-05-11T13:35:02.537Z,44.0
2019-05-11T13:40:03.075Z,42.68
2019-05-11T13:45:02.542Z,39.45
2019-05-11T13:50:03.041Z,42.6
2019-05-11T13:55:02.564Z,37.47
2019-05-11T14:00:03.112Z,38.24
2019-05-11T14:05:02.578Z,37.04
2019-05-11T14:10:03.077Z,35.7
2019-05-11T14:15:02.591Z,35.97
2019-05-11T14:20:02.269Z,34.21
2019-05-11T14:25:01.973Z,35.31
2019-05-11T14:30:04.133Z,34.6
2019-05-11T14:35:02.852Z,34.01
2019-05-11T14:40:03.488Z,34.22
2019-05-11T14:45:02.998Z,35.23
2019-05-11T14:50:02.458Z,36.34
2019-05-11T14:55:03.006Z,37.54
2019-05-11T15:00:02.486Z,38.1
2019-05-11T15:05:03.023Z,38.14
2019-05-11T15:10:02.549Z,38.25
2019-05-11T15:15:03.009Z,39.16
2019-05-11T15:20:02.519Z,38.23
2019-05-11T15:25:03.062Z,39.2
2019-05-11T15:30:02.590Z,38.78
2019-05-11T15:35:03.124Z,39.24
2019-05-11T15:40:02.646Z,39.38
2019-05-11T15:45:03.202Z,40.33
2019-05-11T15:50:02.714Z,41.5
2019-05-11T15:55:03.254Z,42.62
2019-05-11T16:00:02.778Z,44.31
2019-05-11T16:05:03.324Z,45.26
2019-05-11T16:10:02.782Z,45.71
2019-05-11T16:15:03.308Z,44.25
2019-05-11T16:20:02.825Z,43.58
2019-05-11T16:25:03.383Z,42.78
2019-05-11T16:30:02.878Z,42.39
2019-05-11T16:35:03.424Z,43.06
2019-05-11T16:40:02.877Z,42.37
2019-05-11T16:45:03.305Z,42.84
2019-05-11T16:50:02.803Z,43.15
2019-05-11T16:55:02.443Z,43.01
2019-05-11T17:00:02.974Z,43.2
2019-05-11T17:05:02.495Z,43.17
2019-05-11T17:10:03.041Z,43.63
2019-05-11T17:15:02.554Z,42.94
2019-05-11T17:20:03.112Z,43.15
2019-05-11T17:25:02.640Z,42.62
2019-05-11T17:30:03.171Z,42.85
2019-05-11T17:35:02.693Z,43.05
2019-05-11T17:40:03.245Z,42.83
2019-05-11T17:45:02.680Z,42.87
2019-05-11T17:50:03.777Z,42.39
2019-05-11T17:55:02.631Z,42.08
2019-05-11T18:00:03.078Z,42.71
2019-05-11T18:05:02.604Z,43.32
2019-05-11T18:10:03.140Z,43.8
2019-05-11T18:15:02.661Z,44.44
2019-05-11T18:20:14.817Z,45.25
2019-05-11T18:26:08.824Z,45.86
2019-05-11T18:30:02.456Z,46.04
2019-05-11T18:35:02.995Z,46.63
2019-05-11T18:40:02.519Z,46.85
2019-05-11T18:45:03.069Z,47.05
2019-05-11T18:50:02.537Z,47.03
2019-05-11T18:55:03.034Z,47.48
2019-05-11T19:00:02.549Z,47.74
2019-05-11T19:05:03.098Z,47.93
2019-05-11T19:10:02.614Z,48.0
2019-05-11T19:15:03.060Z,48.22
2019-05-11T19:20:02.504Z,48.49
2019-05-11T19:25:03.023Z,48.68
2019-05-11T19:30:02.547Z,48.79
2019-05-11T19:35:02.988Z,49.08
2019-05-11T19:40:02.511Z,49.21
2019-05-11T19:45:02.949Z,49.49
2019-05-11T19:50:03.500Z,49.6
2019-05-11T19:55:03.033Z,49.75
2019-05-11T20:00:02.539Z,49.98
2019-05-11T20:05:03.097Z,50.06
2019-05-11T20:10:02.615Z,50.26
2019-05-11T20:15:03.051Z,50.51
2019-05-11T20:20:02.573Z,50.62
2019-05-11T20:25:03.142Z,50.67
2019-05-11T20:30:02.691Z,50.75
2019-05-11T20:35:03.181Z,51.09
2019-05-11T20:40:02.641Z,51.1
2019-05-11T20:45:03.157Z,51.43
2019-05-11T20:50:02.674Z,51.6
2019-05-11T20:55:03.213Z,51.86
2019-05-11T21:00:02.738Z,51.89
2019-05-11T21:05:03.289Z,52.02
2019-05-11T21:10:02.806Z,52.1
2019-05-11T21:15:03.250Z,52.29
2019-05-11T21:20:02.773Z,52.44
2019-05-11T21:25:03.217Z,52.76
2019-05-11T21:30:02.681Z,52.75
2019-05-11T21:35:03.180Z,52.79
2019-05-11T21:40:02.700Z,52.93
2019-05-11T21:45:03.139Z,53.07
2019-05-11T21:50:02.675Z,53.19
2019-05-11T21:55:03.212Z,53.36
2019-05-11T22:00:02.732Z,53.44
2019-05-11T22:05:03.402Z,53.52
2019-05-11T22:10:02.882Z,53.64
2019-05-11T22:15:03.343Z,53.69
2019-05-11T22:20:02.867Z,53.82
2019-05-11T22:25:03.448Z,53.95
2019-05-11T22:30:02.934Z,54.03
2019-05-11T22:35:03.381Z,54.08
2019-05-11T22:40:02.905Z,54.36
2019-05-11T22:45:03.450Z,54.37
2019-05-11T22:50:02.972Z,54.43
2019-05-11T22:55:02.490Z,54.56
2019-05-11T23:00:08.226Z,54.71
2019-05-11T23:05:02.965Z,54.73
2019-05-11T23:10:02.489Z,54.93
2019-05-11T23:15:03.083Z,55.04
2019-05-11T23:20:02.604Z,55.16
2019-05-11T23:25:03.099Z,55.26
2019-05-11T23:30:02.575Z,55.36
2019-05-11T23:35:03.070Z,55.28
2019-05-11T23:40:01.890Z,55.2
2019-05-11T23:45:03.367Z,55.33
2019-05-11T23:50:02.891Z,55.37
2019-05-11T23:55:03.442Z,55.57
